createdAt,value
2019-02-02T00:02:10.332Z,0.04
2019-02-02T00:05:16.777Z,-0.03
2019-02-02T00:08:23.600Z,-0.01
2019-02-02T00:11:30.483Z,-0.10
2019-02-02T00:14:36.990Z,-0.11
2019-02-02T00:17:43.522Z,-0.07
2019-02-02T00:20:50.319Z,-0.12
2019-02-02T00:23:56.926Z,-0.15
2019-02-02T00:27:03.446Z,-0.21
2019-02-02T00:30:11.427Z,-0.20
2019-02-02T00:33:18.963Z,-0.13
2019-02-02T00:36:25.290Z,-0.15
2019-02-02T00:39:32.898Z,-0.14
2019-02-02T00:42:39.552Z,-0.17
2019-02-02T00:45:45.875Z,-0.20
2019-02-02T00:48:52.386Z,-0.19
2019-02-02T00:51:58.776Z,-0.20
2019-02-02T00:55:05.943Z,-0.21
2019-02-02T00:58:12.627Z,-0.18
2019-02-02T01:01:20.502Z,-0.20
2019-02-02T01:04:26.919Z,-0.09
2019-02-02T01:07:33.684Z,-0.15
2019-02-02T01:10:40.141Z,-0.08
2019-02-02T01:13:47.903Z,-0.14
2019-02-02T01:16:54.743Z,-0.17
2019-02-02T01:20:01.332Z,-0.12
2019-02-02T01:23:08.725Z,0.01
2019-02-02T01:26:15.240Z,-0.06
2019-02-02T01:29:21.777Z,-0.09
2019-02-02T01:32:29.323Z,-0.17
2019-02-02T01:35:35.584Z,-0.21
2019-02-02T01:38:42.377Z,-0.21
2019-02-02T01:41:49.480Z,-0.21
2019-02-02T01:44:55.709Z,-0.20
2019-02-02T01:48:02.449Z,-0.21
2019-02-02T01:51:10.315Z,-0.20
2019-02-02T01:54:16.639Z,-0.21
2019-02-02T01:57:23.351Z,-0.21
2019-02-02T02:00:31.452Z,-0.10
2019-02-02T02:03:37.775Z,-0.19
2019-02-02T02:06:44.369Z,-0.20
2019-02-02T02:09:50.855Z,-0.27
2019-02-02T02:12:57.489Z,-0.17
2019-02-02T02:16:04.126Z,-0.19
2019-02-02T02:19:10.684Z,-0.25
2019-02-02T02:22:17.206Z,-0.17
2019-02-02T02:25:23.824Z,-0.15
2019-02-02T02:28:30.292Z,-0.21
2019-02-02T02:31:39.156Z,-0.26
2019-02-02T02:34:45.462Z,-0.25
2019-02-02T02:37:51.714Z,-0.29
2019-02-02T02:40:58.157Z,-0.32
2019-02-02T02:44:04.459Z,-0.20
2019-02-02T02:47:10.903Z,-0.24
2019-02-02T02:50:18.847Z,-0.31
2019-02-02T02:53:25.278Z,-0.25
2019-02-02T02:56:32.552Z,-0.21
2019-02-02T02:59:39.297Z,-0.21
2019-02-02T03:02:45.936Z,-0.27
2019-02-02T03:05:52.260Z,-0.27
2019-02-02T03:08:58.578Z,-0.29
2019-02-02T03:12:05.277Z,-0.23
2019-02-02T03:15:12.602Z,-0.21
2019-02-02T03:18:22.099Z,-0.23
2019-02-02T03:21:28.335Z,-0.30
2019-02-02T03:24:35.045Z,-0.34
2019-02-02T03:27:42.727Z,-0.35
2019-02-02T03:30:48.850Z,-0.31
2019-02-02T03:33:55.344Z,-0.31
2019-02-02T03:37:01.984Z,-0.32
2019-02-02T03:40:14.027Z,-0.35
2019-02-02T03:43:20.291Z,-0.32
2019-02-02T03:46:27.254Z,-0.22
2019-02-02T03:49:33.582Z,-0.25
2019-02-02T03:52:40.047Z,-0.18
2019-02-02T03:55:46.881Z,-0.29
2019-02-02T03:59:06.140Z,-0.34
2019-02-02T04:02:03.601Z,-0.22
2019-02-02T04:05:13.007Z,-0.34
2019-02-02T04:08:19.774Z,-0.37
2019-02-02T04:11:26.225Z,-0.35
2019-02-02T04:14:32.787Z,-0.32
2019-02-02T04:17:39.027Z,-0.30
2019-02-02T04:20:45.524Z,-0.36
2019-02-02T04:23:52.065Z,-0.39
2019-02-02T04:26:58.617Z,-0.40
2019-02-02T04:30:06.977Z,-0.36
2019-02-02T04:33:13.405Z,-0.36
2019-02-02T04:36:19.973Z,-0.27
2019-02-02T04:39:26.475Z,-0.31
2019-02-02T04:42:32.736Z,-0.35
2019-02-02T04:45:40.653Z,-0.33
2019-02-02T04:48:47.020Z,-0.33
2019-02-02T04:51:53.955Z,-0.34
2019-02-02T04:55:00.505Z,-0.35
2019-02-02T04:58:07.063Z,-0.41
2019-02-02T05:01:13.541Z,-0.44
2019-02-02T05:04:20.540Z,-0.42
2019-02-02T05:07:27.457Z,-0.35
2019-02-02T05:10:34.073Z,-0.37
2019-02-02T05:13:40.948Z,-0.35
2019-02-02T05:16:48.053Z,-0.31
2019-02-02T05:19:55.078Z,-0.29
2019-02-02T05:23:01.884Z,-0.32
2019-02-02T05:26:08.607Z,-0.38
2019-02-02T05:29:15.498Z,-0.42
2019-02-02T05:32:21.897Z,-0.37
2019-02-02T05:35:28.456Z,-0.40
2019-02-02T05:38:34.802Z,-0.42
2019-02-02T05:41:42.321Z,-0.40
2019-02-02T05:44:48.827Z,-0.33
2019-02-02T05:47:55.546Z,-0.38
2019-02-02T05:51:02.147Z,-0.39
2019-02-02T05:54:08.544Z,-0.38
2019-02-02T05:57:15.451Z,-0.40
2019-02-02T06:00:45.744Z,-0.39
2019-02-02T06:03:52.219Z,-0.40
2019-02-02T06:06:58.687Z,-0.40
2019-02-02T06:10:06.388Z,-0.37
2019-02-02T06:13:13.446Z,-0.41
2019-02-02T06:16:20.405Z,-0.40
2019-02-02T06:19:27.441Z,-0.39
2019-02-02T06:22:35.664Z,-0.48
2019-02-02T06:25:44.073Z,-0.43
2019-02-02T06:28:50.895Z,-0.45
2019-02-02T06:31:58.276Z,-0.43
2019-02-02T06:35:06.149Z,-0.48
2019-02-02T06:38:12.960Z,-0.48
2019-02-02T06:41:19.693Z,-0.48
2019-02-02T06:44:26.608Z,-0.39
2019-02-02T06:47:33.446Z,-0.35
2019-02-02T06:50:40.198Z,-0.40
2019-02-02T06:53:46.835Z,-0.39
2019-02-02T06:56:53.636Z,-0.44
2019-02-02T07:00:00.226Z,-0.33
2019-02-02T07:03:06.810Z,-0.37
2019-02-02T07:06:13.537Z,-0.30
2019-02-02T07:09:20.696Z,-0.32
2019-02-02T07:12:27.885Z,-0.27
2019-02-02T07:15:35.339Z,-0.33
2019-02-02T07:18:42.868Z,-0.39
2019-02-02T07:21:50.542Z,-0.40
2019-02-02T07:24:57.438Z,-0.39
2019-02-02T07:28:04.863Z,-0.37
2019-02-02T07:31:11.895Z,-0.37
2019-02-02T07:34:19.185Z,-0.35
2019-02-02T07:37:25.612Z,-0.37
2019-02-02T07:40:32.539Z,-0.49
2019-02-02T07:43:39.830Z,-0.44
2019-02-02T07:46:46.640Z,-0.37
2019-02-02T07:49:52.964Z,-0.33
2019-02-02T07:52:59.671Z,-0.32
2019-02-02T07:56:07.212Z,-0.25
2019-02-02T07:59:14.030Z,-0.21
2019-02-02T08:02:20.268Z,-0.22
2019-02-02T08:05:27.201Z,-0.15
2019-02-02T08:08:34.180Z,-0.26
2019-02-02T08:11:40.888Z,-0.28
2019-02-02T08:14:47.174Z,-0.26
2019-02-02T08:17:53.610Z,-0.22
2019-02-02T08:20:59.867Z,-0.22
2019-02-02T08:24:06.725Z,-0.17
2019-02-02T08:27:13.448Z,-0.15
2019-02-02T08:30:24.814Z,-0.07
2019-02-02T08:33:31.999Z,-0.01
2019-02-02T08:36:38.695Z,-0.05
2019-02-02T08:39:45.080Z,-0.03
2019-02-02T08:42:52.025Z,-0.02
2019-02-02T08:45:58.759Z,0.08
2019-02-02T08:49:06.371Z,0.21
2019-02-02T08:52:13.334Z,0.23
2019-02-02T08:55:20.278Z,0.36
2019-02-02T08:58:27.259Z,0.45
2019-02-02T09:01:34.923Z,0.41
2019-02-02T09:04:41.643Z,0.42
2019-02-02T09:07:48.412Z,0.31
2019-02-02T09:10:56.133Z,0.37
2019-02-02T09:14:03.316Z,0.08
2019-02-02T09:17:10.198Z,0.18
2019-02-02T09:20:17.409Z,0.29
2019-02-02T09:23:24.267Z,0.32
2019-02-02T09:26:31.093Z,0.31
2019-02-02T09:29:37.873Z,0.44
2019-02-02T09:32:44.983Z,0.48
2019-02-02T09:35:51.451Z,0.53
2019-02-02T09:38:58.405Z,0.62
2019-02-02T09:42:05.582Z,0.59
2019-02-02T09:45:13.420Z,0.60
2019-02-02T09:48:20.764Z,0.45
2019-02-02T09:51:27.683Z,0.59
2019-02-02T09:54:34.575Z,0.67
2019-02-02T09:57:40.899Z,0.70
2019-02-02T10:00:47.458Z,0.72
2019-02-02T10:03:54.244Z,0.82
2019-02-02T10:07:01.686Z,0.81
2019-02-02T10:10:11.089Z,0.84
2019-02-02T10:13:18.056Z,0.87
2019-02-02T10:16:25.010Z,0.84
2019-02-02T10:19:31.419Z,0.81
2019-02-02T10:22:39.272Z,0.84
2019-02-02T10:25:46.048Z,0.89
2019-02-02T10:28:53.981Z,0.89
2019-02-02T10:32:00.907Z,0.90
2019-02-02T10:35:07.538Z,1.03
2019-02-02T10:38:15.425Z,1.24
2019-02-02T10:41:22.020Z,1.23
2019-02-02T10:44:30.555Z,1.39
2019-02-02T10:47:37.006Z,1.16
2019-02-02T10:50:43.981Z,1.23
2019-02-02T10:53:50.310Z,1.29
2019-02-02T10:56:57.012Z,1.29
2019-02-02T11:00:04.150Z,1.47
2019-02-02T11:03:11.225Z,1.59
2019-02-02T11:06:17.974Z,1.46
2019-02-02T11:09:25.067Z,1.45
2019-02-02T11:12:32.401Z,1.46
2019-02-02T11:15:39.601Z,1.27
2019-02-02T11:18:46.703Z,1.18
2019-02-02T11:21:53.724Z,1.18
2019-02-02T11:25:01.192Z,1.35
2019-02-02T11:28:09.350Z,1.31
2019-02-02T11:31:16.647Z,1.19
2019-02-02T11:34:23.508Z,1.13
2019-02-02T11:37:30.260Z,1.15
2019-02-02T11:40:37.260Z,1.35
2019-02-02T11:43:43.870Z,1.56
2019-02-02T11:46:51.765Z,1.66
2019-02-02T11:49:58.902Z,1.85
2019-02-02T11:53:05.551Z,1.88
2019-02-02T11:56:16.330Z,1.94
2019-02-02T11:59:22.586Z,2.08
2019-02-02T12:02:29.552Z,2.36
2019-02-02T12:05:36.372Z,2.47
2019-02-02T12:08:43.103Z,2.39
2019-02-02T12:11:49.810Z,2.10
2019-02-02T12:14:56.947Z,1.79
2019-02-02T12:18:03.875Z,1.88
2019-02-02T12:21:11.465Z,1.58
2019-02-02T12:24:19.687Z,1.71
2019-02-02T12:27:26.098Z,1.41
2019-02-02T12:30:34.688Z,1.47
2019-02-02T12:33:41.101Z,1.69
2019-02-02T12:36:47.919Z,1.68
2019-02-02T12:39:54.607Z,1.52
2019-02-02T12:43:00.991Z,1.66
2019-02-02T12:46:08.261Z,1.83
2019-02-02T12:49:15.261Z,2.08
2019-02-02T12:52:22.019Z,2.11
2019-02-02T12:55:28.575Z,1.99
2019-02-02T12:58:35.382Z,2.23
2019-02-02T13:01:43.096Z,1.98
2019-02-02T13:04:49.567Z,2.27
2019-02-02T13:07:57.153Z,2.08
2019-02-02T13:11:03.753Z,2.35
2019-02-02T13:14:10.621Z,2.06
2019-02-02T13:17:17.108Z,2.42
2019-02-02T13:20:23.582Z,2.74
2019-02-02T13:23:30.361Z,2.58
2019-02-02T13:26:38.122Z,2.73
2019-02-02T13:29:44.668Z,2.75
2019-02-02T13:32:51.437Z,2.72
2019-02-02T13:35:58.116Z,2.95
2019-02-02T13:39:08.319Z,2.87
2019-02-02T13:42:15.023Z,2.77
2019-02-02T13:45:22.065Z,2.76
2019-02-02T13:48:29.276Z,2.41
2019-02-02T13:51:37.568Z,2.50
2019-02-02T13:54:44.145Z,2.48
2019-02-02T13:57:51.292Z,2.62
2019-02-02T14:01:00.661Z,2.56
2019-02-02T14:04:07.771Z,2.32
2019-02-02T14:07:18.183Z,2.42
2019-02-02T14:10:24.788Z,2.20
2019-02-02T14:13:33.621Z,2.27
2019-02-02T14:16:40.481Z,2.26
2019-02-02T14:19:47.486Z,1.99
2019-02-02T14:22:54.080Z,1.91
2019-02-02T14:26:01.046Z,1.74
2019-02-02T14:29:07.605Z,1.57
2019-02-02T14:32:14.203Z,1.33
2019-02-02T14:35:21.834Z,1.24
2019-02-02T14:38:29.462Z,1.46
2019-02-02T14:41:37.175Z,1.51
2019-02-02T14:44:44.260Z,1.62
2019-02-02T14:47:51.357Z,1.73
2019-02-02T14:50:57.883Z,1.70
2019-02-02T14:54:04.853Z,1.73
2019-02-02T14:57:11.717Z,1.65
2019-02-02T15:00:20.349Z,1.57
2019-02-02T15:03:27.079Z,1.55
2019-02-02T15:06:37.363Z,1.63
2019-02-02T15:09:43.875Z,1.73
2019-02-02T15:12:53.215Z,1.77
2019-02-02T15:15:59.769Z,1.61
2019-02-02T15:19:06.405Z,1.61
2019-02-02T15:22:13.471Z,1.61
2019-02-02T15:25:23.354Z,1.53
2019-02-02T15:28:30.120Z,1.38
2019-02-02T15:31:37.587Z,1.31
2019-02-02T15:34:44.352Z,1.33
2019-02-02T15:37:53.279Z,1.34
2019-02-02T15:40:59.760Z,1.24
2019-02-02T15:44:06.697Z,1.20
2019-02-02T15:47:13.223Z,1.18
2019-02-02T15:50:20.213Z,1.12
2019-02-02T15:53:26.968Z,1.04
2019-02-02T15:56:34.361Z,1.00
2019-02-02T15:59:40.970Z,0.94
2019-02-02T16:02:47.652Z,0.75
2019-02-02T16:05:54.687Z,0.85
2019-02-02T16:09:01.460Z,0.79
2019-02-02T16:12:10.000Z,0.76
2019-02-02T16:15:17.302Z,0.78
2019-02-02T16:18:25.920Z,0.81
2019-02-02T16:21:32.823Z,0.75
2019-02-02T16:24:39.868Z,0.74
2019-02-02T16:27:46.547Z,0.67
2019-02-02T16:30:53.187Z,0.62
2019-02-02T16:34:02.162Z,0.62
2019-02-02T16:37:08.677Z,0.70
2019-02-02T16:40:17.750Z,0.65
2019-02-02T16:43:24.406Z,0.57
2019-02-02T16:46:31.270Z,0.58
2019-02-02T16:49:39.387Z,0.56
2019-02-02T16:52:46.290Z,0.54
2019-02-02T16:55:53.399Z,0.54
2019-02-02T17:00:43.656Z,0.64
2019-02-02T17:03:50.269Z,0.62
2019-02-02T17:06:56.788Z,0.59
2019-02-02T17:10:03.340Z,0.57
2019-02-02T17:13:12.057Z,0.53
2019-02-02T17:16:20.382Z,0.51
2019-02-02T17:19:27.466Z,0.51
2019-02-02T17:22:35.065Z,0.65
2019-02-02T17:25:43.903Z,0.69
2019-02-02T17:28:50.817Z,0.61
2019-02-02T17:31:58.180Z,0.48
2019-02-02T17:35:05.307Z,0.46
2019-02-02T17:38:12.049Z,0.45
2019-02-02T17:41:19.056Z,0.50
2019-02-02T17:44:25.991Z,0.49
2019-02-02T17:47:32.946Z,0.46
2019-02-02T17:50:39.719Z,0.48
2019-02-02T17:53:46.405Z,0.48
2019-02-02T17:56:52.912Z,0.45
2019-02-02T17:59:59.726Z,0.45
2019-02-02T18:03:06.713Z,0.46
2019-02-02T18:06:13.446Z,0.53
2019-02-02T18:09:19.965Z,0.46
2019-02-02T18:12:26.617Z,0.44
2019-02-02T18:15:33.456Z,0.44
2019-02-02T18:18:40.676Z,0.52
2019-02-02T18:21:47.595Z,0.51
2019-02-02T18:24:54.208Z,0.60
2019-02-02T18:28:01.011Z,0.53
2019-02-02T18:31:07.728Z,0.49
2019-02-02T18:34:15.587Z,0.46
2019-02-02T18:37:22.366Z,0.47
2019-02-02T18:40:29.316Z,0.56
2019-02-02T18:43:35.998Z,0.49
2019-02-02T18:46:43.034Z,0.45
2019-02-02T18:49:50.082Z,0.51
2019-02-02T18:52:56.687Z,0.46
2019-02-02T18:56:09.588Z,0.41
2019-02-02T18:59:16.077Z,0.39
2019-02-02T19:02:24.009Z,0.45
2019-02-02T19:05:30.952Z,0.44
2019-02-02T19:08:37.905Z,0.38
2019-02-02T19:11:44.356Z,0.34
2019-02-02T19:14:51.402Z,0.34
2019-02-02T19:17:59.462Z,0.33
2019-02-02T19:21:06.172Z,0.37
2019-02-02T19:24:13.086Z,0.37
2019-02-02T19:27:23.173Z,0.41
2019-02-02T19:30:31.467Z,0.39
2019-02-02T19:33:39.280Z,0.38
2019-02-02T19:36:46.238Z,0.43
2019-02-02T19:39:53.767Z,0.44
2019-02-02T19:43:00.427Z,0.37
2019-02-02T19:46:07.451Z,0.39
2019-02-02T19:49:13.879Z,0.41
2019-02-02T19:52:21.884Z,0.44
2019-02-02T19:55:31.256Z,0.46
2019-02-02T19:58:37.904Z,0.44
2019-02-02T20:01:45.191Z,0.39
2019-02-02T20:04:52.606Z,0.33
2019-02-02T20:07:59.345Z,0.31
2019-02-02T20:11:06.398Z,0.28
2019-02-02T20:14:15.126Z,0.30
2019-02-02T20:17:21.727Z,0.36
2019-02-02T20:20:28.654Z,0.31
2019-02-02T20:23:38.402Z,0.34
2019-02-02T20:26:43.389Z,0.34
2019-02-02T20:29:50.391Z,0.34
2019-02-02T20:32:57.451Z,0.33
2019-02-02T20:36:04.656Z,0.35
2019-02-02T20:39:11.128Z,0.35
2019-02-02T20:42:18.009Z,0.49
2019-02-02T20:45:26.776Z,0.46
2019-02-02T20:48:33.305Z,0.41
2019-02-02T20:51:41.842Z,0.38
2019-02-02T20:54:49.960Z,0.37
2019-02-02T20:57:57.869Z,0.36
2019-02-02T21:01:04.835Z,0.37
2019-02-02T21:04:12.576Z,0.34
2019-02-02T21:07:22.457Z,0.40
2019-02-02T21:10:30.208Z,0.38
2019-02-02T21:13:37.717Z,0.33
2019-02-02T21:16:45.201Z,0.32
2019-02-02T21:19:52.357Z,0.31
2019-02-02T21:23:00.502Z,0.31
2019-02-02T21:26:07.615Z,0.31
2019-02-02T21:29:14.365Z,0.31
2019-02-02T21:32:21.758Z,0.30
2019-02-02T21:35:28.641Z,0.34
2019-02-02T21:38:35.711Z,0.38
2019-02-02T21:41:44.896Z,0.41
2019-02-02T21:44:51.449Z,0.45
2019-02-02T21:47:58.069Z,0.36
2019-02-02T21:51:04.693Z,0.41
2019-02-02T21:54:11.290Z,0.39
2019-02-02T21:57:17.937Z,0.42
2019-02-02T22:00:29.370Z,0.50
2019-02-02T22:03:36.261Z,0.52
2019-02-02T22:06:43.531Z,0.51
2019-02-02T22:09:51.037Z,0.48
2019-02-02T22:12:59.046Z,0.50
2019-02-02T22:16:06.040Z,0.50
2019-02-02T22:19:14.048Z,0.51
2019-02-02T22:22:22.282Z,0.53
2019-02-02T22:25:30.088Z,0.45
2019-02-02T22:28:37.085Z,0.45
2019-02-02T22:31:45.624Z,0.46
2019-02-02T22:34:52.560Z,0.48
2019-02-02T22:37:59.781Z,0.54
2019-02-02T22:41:07.095Z,0.53
2019-02-02T22:44:13.884Z,0.54
2019-02-02T22:47:22.025Z,0.58
2019-02-02T22:50:29.361Z,0.44
2019-02-02T22:53:36.653Z,0.44
2019-02-02T22:56:44.456Z,0.50
2019-02-02T22:59:52.050Z,0.49
2019-02-02T23:02:59.157Z,0.53
2019-02-02T23:06:39.645Z,0.52
2019-02-02T23:10:32.114Z,0.52
2019-02-02T23:14:08.495Z,0.46
2019-02-02T23:17:15.948Z,0.46
2019-02-02T23:20:22.387Z,0.43
2019-02-02T23:23:29.458Z,0.43
2019-02-02T23:26:36.560Z,0.40
2019-02-02T23:29:43.484Z,0.48
2019-02-02T23:32:50.115Z,0.45
2019-02-02T23:35:57.167Z,0.38
2019-02-02T23:39:05.938Z,0.37
2019-02-02T23:42:12.708Z,0.40
2019-02-02T23:45:22.107Z,0.45
2019-02-02T23:48:29.001Z,0.39
2019-02-02T23:51:36.518Z,0.32
2019-02-02T23:54:43.026Z,0.38
2019-02-02T23:57:49.808Z,0.39
